Time;durP1;ratioP1;P1;durP2;ratioP2;P2;SDS_P1;SDS_P2;PMS_P1;PMS_P2;Temp;Humidity;BMP_temperature;BMP_pressure;BME280_temperature;BME280_humidity;BME280_pressure;Samples;Min_cycle;Max_cycle;Signal;HPM_P1;HPM_P2
2023/05/13 00:02:24;;;;;;;2.70;2.60;;;13.90;99.90;;;14.09;87.90;100746.63;5025990;28;20632;-64
2023/05/13 00:04:51;;;;;;;2.50;2.30;;;13.90;99.90;;;14.08;88.17;100740.53;5031068;28;21050;-67
2023/05/13 00:07:18;;;;;;;2.63;2.43;;;13.80;99.90;;;14.03;88.41;100745.38;5025638;28;20636;-67
2023/05/13 00:09:45;;;;;;;3.27;2.60;;;13.80;99.90;;;14.02;88.34;100735.81;5031167;28;20644;-68
2023/05/13 00:12:11;;;;;;;3.43;3.13;;;13.80;99.90;;;14.02;88.46;100730.56;5015065;28;20645;-66
2023/05/13 00:14:38;;;;;;;4.67;2.90;;;13.80;99.90;;;14.05;88.20;100739.97;5011251;28;20625;-66
2023/05/13 00:17:05;;;;;;;2.70;2.50;;;13.80;99.90;;;14.00;88.13;100735.94;5011069;28;20675;-65
2023/05/13 00:19:32;;;;;;;3.60;3.00;;;13.80;99.90;;;13.98;88.70;100740.50;5011052;28;21271;-66
2023/05/13 00:21:59;;;;;;;2.67;2.57;;;13.80;99.90;;;13.93;88.88;100729.56;5026342;28;20624;-67
2023/05/13 00:24:26;;;;;;;3.10;2.80;;;13.70;99.90;;;13.91;89.12;100733.25;5032161;28;20624;-67
2023/05/13 00:26:53;;;;;;;3.03;2.73;;;13.70;99.90;;;13.88;88.78;100729.09;5027491;28;20640;-66
2023/05/13 00:29:20;;;;;;;2.40;2.23;;;13.70;99.90;;;13.85;89.42;100724.13;5033742;28;20710;-67
2023/05/13 00:31:47;;;;;;;3.50;3.20;;;13.70;99.90;;;13.84;89.44;100738.19;5026485;28;21235;-68
2023/05/13 00:34:14;;;;;;;2.60;2.40;;;13.60;99.90;;;13.80;89.62;100728.91;5028496;28;20624;-66
2023/05/13 00:36:41;;;;;;;2.63;2.40;;;13.60;99.90;;;13.78;90.07;100730.84;5012864;28;20725;-65
2023/05/13 00:39:08;;;;;;;2.77;2.60;;;13.50;99.90;;;13.73;90.15;100725.16;5010336;28;20634;-67
2023/05/13 00:41:35;;;;;;;5.10;3.50;;;13.50;99.90;;;13.72;90.04;100723.47;5021250;28;20995;-66
2023/05/13 00:44:02;;;;;;;2.93;2.73;;;13.40;99.90;;;13.70;90.41;100729.81;5031681;28;20662;-66
2023/05/13 00:46:32;;;;;;;3.90;3.00;;;13.40;99.90;;;13.69;90.40;100736.84;5013538;28;20728;-66
2023/05/13 00:49:00;;;;;;;3.40;3.20;;;13.50;99.90;;;13.70;90.57;100735.06;5009994;28;20653;-66
2023/05/13 00:51:27;;;;;;;3.60;3.30;;;13.50;99.90;;;13.63;90.87;100729.50;5019477;28;20624;-66
2023/05/13 00:53:57;;;;;;;3.37;3.07;;;13.40;99.90;;;13.62;90.61;100735.72;5030557;28;20619;-66
2023/05/13 00:56:25;;;;;;;3.70;3.40;;;13.40;99.90;;;13.59;90.97;100738.56;5029868;28;20619;-66
2023/05/13 00:58:52;;;;;;;2.60;2.40;;;13.40;99.90;;;13.57;91.35;100739.66;5035546;28;20690;-67
2023/05/13 01:01:46;;;;;;;2.83;2.63;;;13.30;99.90;;;13.52;91.40;100732.16;5036356;28;21222;-66
2023/05/13 01:04:37;;;;;;;3.40;3.10;;;13.30;99.90;;;13.48;91.97;100740.44;5024932;28;20626;-66
2023/05/13 01:07:25;;;;;;;3.37;3.07;;;13.20;99.90;;;13.42;91.96;100735.66;5028461;28;20629;-66
2023/05/13 01:10:01;;;;;;;3.50;3.20;;;13.20;99.90;;;13.36;92.60;100742.25;5014690;28;20654;-67
2023/05/13 01:12:39;;;;;;;3.27;2.97;;;13.10;99.90;;;13.36;92.83;100741.41;5027320;28;20658;-67
2023/05/13 01:15:20;;;;;;;3.07;2.77;;;13.10;99.90;;;13.34;92.93;100749.41;5030993;28;21228;-68
2023/05/13 01:18:16;;;;;;;3.50;3.20;;;13.10;99.90;;;13.30;93.27;100745.38;5025647;28;21013;-67
2023/05/13 01:20:44;;;;;;;4.27;3.10;;;13.10;99.90;;;13.31;92.80;100744.41;5013719;28;20618;-66
2023/05/13 01:23:12;;;;;;;3.53;3.20;;;13.10;99.90;;;13.26;93.23;100741.34;5031243;28;20620;-66
2023/05/13 01:25:40;;;;;;;3.23;3.03;;;13.00;99.90;;;13.24;93.17;100744.06;5020330;28;20640;-66
2023/05/13 01:28:07;;;;;;;2.80;2.60;;;13.00;99.90;;;13.24;93.54;100743.25;5020029;28;20668;-67
2023/05/13 01:30:35;;;;;;;4.27;3.50;;;13.00;99.90;;;13.22;93.96;100751.22;5021468;28;20616;-68
2023/05/13 01:33:03;;;;;;;3.50;3.20;;;13.00;99.90;;;13.19;93.77;100745.41;5015907;28;20638;-66
2023/05/13 01:35:31;;;;;;;5.73;3.37;;;13.00;99.90;;;13.15;93.64;100739.59;5015966;28;20617;-66
2023/05/13 01:38:02;;;;;;;3.20;2.97;;;12.90;99.90;;;13.12;94.26;100746.84;5023876;28;20719;-66
2023/05/13 01:40:29;;;;;;;2.83;2.60;;;12.90;99.90;;;13.12;94.11;100739.81;5022084;28;20631;-66
2023/05/13 01:42:59;;;;;;;4.03;3.20;;;12.90;99.90;;;13.10;93.84;100740.91;5011929;28;21238;-68
2023/05/13 01:45:29;;;;;;;4.97;3.50;;;12.90;99.90;;;13.09;94.36;100739.25;5009772;28;20636;-66
2023/05/13 01:47:56;;;;;;;3.90;3.50;;;12.90;99.90;;;13.08;94.54;100737.56;5009943;28;20665;-66
2023/05/13 01:50:24;;;;;;;3.50;3.20;;;12.80;99.90;;;13.06;94.82;100734.25;5035008;28;20640;-67
2023/05/13 01:52:51;;;;;;;4.00;3.50;;;12.80;99.90;;;13.04;95.34;100744.84;5026480;28;20763;-68
2023/05/13 01:55:18;;;;;;;3.70;3.40;;;12.80;99.90;;;13.03;95.13;100742.34;5027513;28;20625;-66
2023/05/13 01:57:45;;;;;;;5.40;3.97;;;12.80;99.90;;;13.02;95.15;100735.41;5019605;28;21547;-66
2023/05/13 02:00:12;;;;;;;4.00;3.60;;;12.80;99.90;;;13.01;95.14;100739.00;5028434;28;20623;-67
2023/05/13 02:02:39;;;;;;;5.53;4.20;;;12.80;99.90;;;13.01;94.87;100742.44;5029652;28;20656;-67
2023/05/13 02:05:07;;;;;;;5.13;3.70;;;12.80;99.90;;;13.00;94.98;100748.66;5027687;28;20640;-66
2023/05/13 02:07:34;;;;;;;4.53;3.60;;;12.80;99.90;;;12.97;95.42;100761.13;5019046;28;21256;-65
2023/05/13 02:10:01;;;;;;;4.17;3.73;;;12.80;99.90;;;12.93;95.22;100747.47;5014653;28;20739;-67
2023/05/13 02:12:28;;;;;;;4.57;3.90;;;12.70;99.90;;;12.89;95.65;100743.44;5021573;28;20616;-67
2023/05/13 02:14:55;;;;;;;4.50;3.40;;;12.70;99.90;;;12.90;95.98;100752.13;5007618;28;20752;-67
2023/05/13 02:17:22;;;;;;;4.03;3.40;;;12.70;99.90;;;12.87;95.92;100752.34;5025248;28;20642;-69
2023/05/13 02:19:49;;;;;;;3.60;3.30;;;12.70;99.90;;;12.83;96.37;100759.63;5023537;28;21317;-66
2023/05/13 02:22:16;;;;;;;4.80;3.27;;;12.60;99.90;;;12.80;96.70;100759.06;5023519;28;20620;-66
2023/05/13 02:24:43;;;;;;;4.33;3.90;;;12.60;99.90;;;12.79;96.43;100754.75;5025342;28;20641;-66
2023/05/13 02:27:11;;;;;;;4.40;3.70;;;12.60;99.90;;;12.75;96.25;100761.19;5027663;28;20633;-64
2023/05/13 02:29:38;;;;;;;3.90;3.20;;;12.50;99.90;;;12.73;96.06;100757.88;5026743;28;20644;-66
2023/05/13 02:32:06;;;;;;;5.53;4.20;;;12.50;99.90;;;12.69;96.39;100759.06;5025540;28;20694;-66
2023/05/13 02:34:33;;;;;;;6.10;4.33;;;12.50;99.90;;;12.68;96.38;100757.38;5023862;28;20639;-66
2023/05/13 02:37:02;;;;;;;4.70;3.93;;;12.50;99.90;;;12.67;95.98;100753.13;5027628;28;20625;-66
2023/05/13 02:39:29;;;;;;;4.67;3.60;;;12.50;99.90;;;12.67;96.51;100763.59;5029243;28;20730;-67
2023/05/13 02:41:56;;;;;;;4.63;4.13;;;12.50;99.90;;;12.62;95.93;100755.25;5028987;28;20929;-66
2023/05/13 02:44:23;;;;;;;4.77;4.27;;;12.40;99.90;;;12.55;96.46;100752.28;5025209;28;21211;-66
2023/05/13 02:46:50;;;;;;;5.47;4.67;;;12.40;99.90;;;12.53;96.98;100763.81;5020993;28;20640;-63
2023/05/13 02:49:17;;;;;;;5.03;3.97;;;12.30;99.90;;;12.55;96.80;100754.06;5023387;28;21243;-66
2023/05/13 02:51:44;;;;;;;4.30;3.90;;;12.30;99.90;;;12.52;97.09;100757.78;5041353;28;20619;-66
2023/05/13 02:54:11;;;;;;;4.60;3.77;;;12.30;99.90;;;12.50;96.92;100753.59;5029903;28;20648;-67
2023/05/13 02:56:37;;;;;;;5.33;4.03;;;12.30;99.90;;;12.51;97.05;100757.88;5030445;28;20878;-67
2023/05/13 02:59:04;;;;;;;4.53;3.30;;;12.30;99.90;;;12.50;97.23;100756.22;5007669;28;20669;-65
2023/05/13 03:01:31;;;;;;;3.80;3.33;;;12.30;99.90;;;12.48;96.97;100759.78;5038391;28;20620;-67
2023/05/13 03:03:58;;;;;;;3.97;3.43;;;12.30;99.90;;;12.44;97.21;100753.13;5026719;28;21250;-66
2023/05/13 03:06:26;;;;;;;3.27;2.97;;;12.20;99.90;;;12.42;97.34;100746.31;5007600;28;20687;-66
2023/05/13 03:08:52;;;;;;;5.70;3.60;;;12.20;99.90;;;12.42;97.13;100735.84;5019116;28;20674;-66
2023/05/13 03:11:20;;;;;;;5.27;3.67;;;12.20;99.90;;;12.41;96.82;100745.50;5009012;28;20628;-67
2023/05/13 03:13:47;;;;;;;3.80;2.77;;;12.20;99.90;;;12.41;96.94;100753.34;5024857;28;21232;-66
2023/05/13 03:16:14;;;;;;;3.60;3.03;;;12.20;99.90;;;12.42;96.82;100749.78;5028388;28;20694;-66
2023/05/13 03:18:41;;;;;;;2.93;2.70;;;12.20;99.90;;;12.38;96.28;100744.91;5011306;28;20750;-67
2023/05/13 03:21:08;;;;;;;3.70;3.40;;;12.20;99.90;;;12.39;96.07;100747.41;5008814;28;20626;-66
2023/05/13 03:23:36;;;;;;;4.63;3.90;;;12.20;99.90;;;12.38;96.23;100747.53;5010537;28;20680;-66
2023/05/13 03:26:03;;;;;;;3.17;2.97;;;12.20;99.90;;;12.39;96.43;100749.19;5009365;28;20621;-66
2023/05/13 03:28:30;;;;;;;3.83;3.53;;;12.20;99.90;;;12.37;95.96;100743.25;5018213;28;20661;-66
2023/05/13 03:30:56;;;;;;;4.50;3.40;;;12.20;99.90;;;12.36;95.50;100752.88;5015964;28;20616;-67
2023/05/13 03:33:23;;;;;;;3.20;2.87;;;12.20;99.90;;;12.32;95.03;100753.22;5027803;28;20633;-66
2023/05/13 03:35:50;;;;;;;4.10;3.37;;;12.10;99.90;;;12.30;95.58;100753.34;5014289;28;21230;-65
2023/05/13 03:38:17;;;;;;;3.90;3.50;;;12.10;99.90;;;12.27;95.70;100755.34;5008967;28;21042;-66
2023/05/13 03:40:45;;;;;;;3.27;2.60;;;12.10;99.90;;;12.25;95.32;100760.72;5008389;28;20609;-66
2023/05/13 03:43:12;;;;;;;3.73;2.83;;;12.10;99.90;;;12.21;95.26;100758.44;5009160;28;20621;-67
2023/05/13 03:45:39;;;;;;;3.13;2.80;;;12.00;99.90;;;12.21;94.52;100761.91;5013812;28;21254;-67
2023/05/13 03:48:06;;;;;;;6.67;3.50;;;12.00;99.90;;;12.16;94.22;100758.81;5009312;28;20653;-67
2023/05/13 03:50:33;;;;;;;3.37;3.07;;;12.00;99.90;;;12.17;94.77;100763.09;5009608;28;20732;-66
2023/05/13 03:53:01;;;;;;;3.40;3.10;;;12.00;99.90;;;12.18;94.58;100772.59;5018653;28;21185;-66
2023/05/13 03:55:28;;;;;;;4.00;3.53;;;12.00;99.90;;;12.17;93.94;100768.31;5015692;28;20621;-68
2023/05/13 03:57:54;;;;;;;4.30;3.13;;;12.00;99.90;;;12.19;93.91;100769.03;5008117;28;20664;-66
2023/05/13 04:00:21;;;;;;;4.87;3.73;;;12.00;99.90;;;12.20;93.36;100770.69;5006840;28;20725;-66
2023/05/13 04:02:49;;;;;;;2.90;2.70;;;12.10;99.90;;;12.23;93.05;100773.09;5022794;28;20692;-67
2023/05/13 04:05:16;;;;;;;3.10;2.80;;;12.10;99.90;;;12.25;93.67;100779.03;5006895;28;21227;-66
2023/05/13 04:07:43;;;;;;;4.20;3.20;;;12.10;99.90;;;12.29;93.23;100774.38;5016261;28;20652;-66
2023/05/13 04:10:10;;;;;;;3.90;3.50;;;12.10;99.90;;;12.34;93.38;100778.34;5017362;28;20650;-66
2023/05/13 04:12:44;;;;;;;4.43;3.50;;;12.20;99.90;;;12.40;92.54;100783.09;5019916;28;21186;-68
2023/05/13 04:15:11;;;;;;;4.10;3.30;;;12.20;99.90;;;12.48;92.44;100785.09;5009057;28;20641;-66
2023/05/13 04:17:38;;;;;;;3.20;2.50;;;12.30;99.90;;;12.50;91.82;100782.38;5013207;28;20662;-67
2023/05/13 04:20:06;;;;;;;3.83;3.50;;;12.30;99.90;;;12.53;92.37;100780.34;5012527;28;20700;-67
2023/05/13 04:22:34;;;;;;;9.93;3.13;;;12.40;99.90;;;12.54;92.21;100784.66;5020570;28;20651;-66
2023/05/13 04:25:01;;;;;;;4.23;3.57;;;12.40;99.90;;;12.56;91.52;100787.16;5030014;28;21188;-67
2023/05/13 04:27:28;;;;;;;3.73;3.43;;;12.40;99.90;;;12.58;91.90;100782.63;5024694;28;20604;-66
2023/05/13 04:29:55;;;;;;;3.33;3.03;;;12.40;99.90;;;12.63;91.19;100783.09;5023506;28;20650;-66
2023/05/13 04:32:22;;;;;;;3.90;3.60;;;12.50;99.90;;;12.72;91.55;100787.59;5035962;28;20644;-66
2023/05/13 04:34:50;;;;;;;4.20;3.80;;;12.50;99.90;;;12.82;91.25;100785.94;5051531;28;20627;-66
2023/05/13 04:37:17;;;;;;;5.13;3.80;;;12.60;99.90;;;12.87;90.11;100778.53;5043536;28;21007;-66
2023/05/13 04:39:47;;;;;;;3.30;3.10;;;12.70;99.90;;;13.02;89.92;100793.03;5032087;28;20679;-66
2023/05/13 04:42:15;;;;;;;3.83;3.43;;;12.80;99.90;;;13.13;89.46;100796.53;5030326;28;20636;-66
2023/05/13 04:44:42;;;;;;;3.50;3.20;;;12.90;99.90;;;13.23;88.60;100804.47;5032418;28;21112;-67
2023/05/13 04:47:10;;;;;;;3.93;3.60;;;13.00;99.90;;;13.29;87.50;100809.22;5027840;28;21069;-66
2023/05/13 04:49:37;;;;;;;4.23;3.80;;;13.10;99.90;;;13.37;87.30;100812.06;5011548;28;20733;-65
2023/05/13 04:52:05;;;;;;;3.50;3.20;;;13.20;99.90;;;13.49;87.29;100810.22;5026904;28;20617;-66
2023/05/13 04:54:34;;;;;;;4.10;3.37;;;13.30;99.90;;;13.62;86.45;100809.13;5009567;28;21761;-66
2023/05/13 04:57:02;;;;;;;2.57;2.30;;;13.40;99.90;;;13.79;85.80;100807.72;5009639;28;21189;-66
2023/05/13 04:59:29;;;;;;;3.03;2.80;;;13.50;99.90;;;13.99;85.27;100817.41;5011420;28;20680;-67
2023/05/13 05:01:56;;;;;;;2.97;2.80;;;13.70;99.90;;;14.22;83.91;100810.22;5027630;28;20636;-66
2023/05/13 05:04:24;;;;;;;4.47;3.07;;;14.00;99.90;;;14.43;82.66;100813.69;5039203;28;20709;-66
2023/05/13 05:06:51;;;;;;;3.07;2.70;;;14.20;99.90;;;14.66;82.03;100813.41;5010899;28;20641;-65
2023/05/13 05:09:18;;;;;;;4.63;3.40;;;14.40;99.90;;;14.88;80.52;100819.44;5013331;28;20663;-67
2023/05/13 05:11:45;;;;;;;6.13;3.30;;;14.60;99.90;;;14.98;79.37;100821.13;5011425;28;21195;-66
2023/05/13 05:14:12;;;;;;;4.77;4.30;;;14.70;99.90;;;15.12;78.59;100826.00;5028451;28;20650;-66
2023/05/13 05:16:38;;;;;;;3.33;3.07;;;14.90;99.90;;;15.30;77.58;100821.75;5030669;28;20612;-66
2023/05/13 05:19:05;;;;;;;3.07;2.80;;;15.00;99.90;;;15.44;76.96;100824.00;5030341;28;20699;-67
2023/05/13 05:21:32;;;;;;;4.23;3.83;;;15.20;99.90;;;15.53;75.96;100833.72;5010963;28;21227;-66
2023/05/13 05:24:00;;;;;;;3.27;3.07;;;15.30;99.90;;;15.73;75.36;100836.34;5009882;28;20612;-67
2023/05/13 05:26:27;;;;;;;3.20;3.00;;;15.40;99.90;;;15.91;74.95;100826.78;5010617;28;20618;-66
2023/05/13 05:28:54;;;;;;;3.50;3.20;;;15.60;99.90;;;16.12;74.78;100824.84;5028129;28;20660;-66
2023/05/13 05:31:21;;;;;;;3.67;3.27;;;15.80;99.90;;;16.44;73.74;100825.31;5032096;28;20986;-66
2023/05/13 05:33:48;;;;;;;2.80;2.60;;;16.10;99.90;;;16.72;72.28;100828.84;5013404;28;20684;-67
2023/05/13 05:36:15;;;;;;;3.40;3.10;;;16.40;99.90;;;16.93;71.78;100832.09;5012183;28;20632;-67
2023/05/13 05:38:42;;;;;;;3.73;2.90;;;16.70;99.90;;;17.21;70.61;100836.38;5012764;28;20683;-68
2023/05/13 05:41:09;;;;;;;3.30;3.10;;;16.90;99.90;;;17.56;69.51;100839.13;5010700;28;20613;-66
2023/05/13 05:43:36;;;;;;;5.93;3.57;;;17.30;99.90;;;17.67;68.72;100840.72;5035627;28;20689;-66
2023/05/13 05:46:03;;;;;;;4.03;3.70;;;17.40;99.90;;;17.84;68.10;100843.31;5017321;28;20644;-67
2023/05/13 05:48:30;;;;;;;3.80;3.60;;;17.50;99.90;;;18.02;67.96;100842.47;5022779;28;20664;-67
2023/05/13 05:51:00;;;;;;;3.70;3.40;;;17.70;99.90;;;18.38;66.92;100844.91;5030194;28;20601;-66
2023/05/13 05:53:27;;;;;;;3.23;3.00;;;18.00;99.90;;;18.75;65.35;100846.47;5015427;28;20688;-66
2023/05/13 05:55:54;;;;;;;3.47;3.20;;;18.40;99.90;;;19.13;64.39;100857.38;5022866;28;20671;-67
2023/05/13 05:58:21;;;;;;;4.50;4.10;;;18.70;99.90;;;19.64;62.13;100852.91;5017409;28;21298;-65
2023/05/13 06:00:48;;;;;;;4.57;4.17;;;19.20;99.90;;;19.90;60.82;100857.09;5024111;28;21208;-67
2023/05/13 06:03:15;;;;;;;3.30;3.00;;;19.50;99.90;;;20.25;60.07;100858.63;5028284;28;20605;-67
2023/05/13 06:05:42;;;;;;;3.63;3.33;;;19.80;99.90;;;20.54;58.93;100866.03;5025074;28;20732;-67
2023/05/13 06:08:09;;;;;;;3.00;2.80;;;20.20;99.90;;;20.51;58.95;100856.59;5009451;28;20653;-67
2023/05/13 06:10:37;;;;;;;3.30;3.10;;;20.20;99.90;;;20.34;59.56;100859.41;5022403;28;21182;-67
2023/05/13 06:13:04;;;;;;;3.00;2.80;;;20.10;99.90;;;20.23;59.76;100873.03;5010595;28;21004;-67
2023/05/13 06:15:31;;;;;;;2.93;2.73;;;20.00;99.90;;;20.13;60.27;100866.03;5031468;28;20635;-69
2023/05/13 06:17:58;;;;;;;2.43;2.30;;;19.90;99.90;;;20.01;60.45;100874.47;5022123;28;20857;-67
2023/05/13 06:20:25;;;;;;;4.90;2.03;;;19.80;99.90;;;19.85;61.45;100870.00;5020534;28;20657;-66
2023/05/13 06:22:52;;;;;;;2.73;2.23;;;19.60;99.90;;;19.96;61.99;100872.31;5018576;28;20682;-67
2023/05/13 06:25:19;;;;;;;2.10;2.00;;;19.70;99.90;;;20.33;60.71;100869.22;5025468;28;20629;-68
2023/05/13 06:27:46;;;;;;;2.47;2.30;;;20.10;99.90;;;20.91;59.11;100863.63;5026150;28;20655;-67
2023/05/13 06:30:13;;;;;;;2.00;1.90;;;20.60;99.90;;;21.46;56.97;100859.09;5023932;28;21219;-67
2023/05/13 06:32:40;;;;;;;3.67;3.37;;;21.20;99.90;;;21.96;55.44;100869.22;5028811;28;20612;-66
2023/05/13 06:35:23;;;;;;;3.40;3.13;;;21.70;99.90;;;22.97;53.33;100867.75;5022437;28;20625;-66
2023/05/13 06:37:50;;;;;;;2.90;2.70;;;22.50;99.90;;;23.74;49.98;100874.22;5027343;28;20687;-67
2023/05/13 06:40:17;;;;;;;1.67;1.60;;;23.40;99.90;;;24.55;47.55;100859.56;5029838;28;20671;-67
2023/05/13 06:42:44;;;;;;;2.80;2.70;;;24.10;98.50;;;25.63;45.03;100855.16;5020429;28;20611;-66
2023/05/13 06:45:11;;;;;;;2.30;2.20;;;25.10;95.90;;;26.67;43.13;100864.25;5013524;28;20636;-67
2023/05/13 06:47:37;;;;;;;3.70;3.40;;;26.20;93.70;;;27.87;40.17;100867.88;5029532;28;20625;-67
2023/05/13 06:50:05;;;;;;;4.07;3.23;;;27.30;90.90;;;28.56;39.02;100875.78;5029958;28;20667;-67
2023/05/13 06:52:32;;;;;;;3.47;3.23;;;28.10;86.10;;;29.12;38.13;100865.69;5029136;28;20629;-67
2023/05/13 06:54:59;;;;;;;2.87;2.70;;;28.70;81.70;;;29.16;37.15;100863.38;5027911;28;20630;-67
2023/05/13 06:57:26;;;;;;;2.70;2.47;;;28.90;79.20;;;29.23;36.48;100866.00;5047502;28;20620;-67
2023/05/13 07:00:08;;;;;;;2.80;2.70;;;29.00;75.50;;;28.38;37.16;100871.22;5002562;28;20641;-66
2023/05/13 07:02:35;;;;;;;2.80;2.40;;;28.30;74.30;;;27.49;38.28;100867.91;5029765;28;20611;-67
2023/05/13 07:05:02;;;;;;;2.23;2.10;;;27.50;74.60;;;26.78;38.86;100856.44;5023982;28;20738;-67
2023/05/13 07:07:29;;;;;;;3.00;2.80;;;26.70;74.30;;;26.11;40.59;100867.38;5047691;28;20592;-66
2023/05/13 07:09:56;;;;;;;2.17;2.07;;;26.10;76.60;;;25.66;41.90;100860.09;5019206;28;20694;-67
2023/05/13 07:12:23;;;;;;;3.23;3.00;;;25.70;78.30;;;25.24;42.15;100860.34;5020732;28;21200;-66
2023/05/13 07:14:51;;;;;;;2.40;2.30;;;25.30;78.30;;;25.18;42.73;100855.81;5012006;28;20614;-68
2023/05/13 07:17:17;;;;;;;3.23;3.03;;;25.20;79.30;;;24.93;44.46;100846.66;5008696;28;20629;-68
2023/05/13 07:19:44;;;;;;;2.80;2.60;;;24.90;81.40;;;24.62;45.31;100853.22;5009138;28;20676;-67
2023/05/13 07:22:11;;;;;;;2.10;2.00;;;24.60;82.20;;;24.43;45.53;100847.75;5014468;28;21008;-68
2023/05/13 07:24:39;;;;;;;3.13;2.87;;;24.40;83.00;;;24.12;44.74;100856.16;5008720;28;20692;-67
2023/05/13 07:27:06;;;;;;;3.13;2.93;;;24.10;82.70;;;24.31;45.14;100852.00;5011477;28;21097;-67
2023/05/13 07:29:33;;;;;;;2.70;2.50;;;24.10;83.90;;;24.44;44.56;100858.25;5015119;28;21201;-66
2023/05/13 07:32:04;;;;;;;2.77;2.57;;;24.20;83.10;;;24.64;44.24;100853.03;5010642;28;20621;-68
2023/05/13 07:34:31;;;;;;;2.37;2.27;;;24.30;82.60;;;24.94;43.47;100854.47;5009038;28;20637;-67
2023/05/13 07:36:58;;;;;;;2.83;2.63;;;24.70;82.10;;;25.66;41.69;100854.75;5007401;28;20716;-67
2023/05/13 07:39:26;;;;;;;2.53;2.37;;;25.30;79.40;;;26.84;40.03;100863.63;5007759;28;21308;-65
2023/05/13 07:41:53;;;;;;;2.90;2.80;;;26.50;78.10;;;28.23;37.53;100864.53;5010148;28;20593;-67
2023/05/13 07:44:21;;;;;;;2.87;2.60;;;27.80;75.30;;;29.56;35.39;100863.69;5021256;28;21047;-67
2023/05/13 07:46:50;;;;;;;2.90;2.80;;;29.20;72.30;;;30.79;33.49;100861.88;5023218;28;20632;-68
2023/05/13 07:49:17;;;;;;;2.70;2.50;;;30.60;68.50;;;31.50;32.11;100862.28;5026618;28;20670;-66
2023/05/13 07:51:44;;;;;;;2.50;2.40;;;31.30;66.10;;;32.21;30.69;100864.38;5025525;28;20644;-68
2023/05/13 07:54:10;;;;;;;2.00;1.90;;;32.10;63.20;;;33.14;29.44;100863.56;5029559;28;20636;-67
2023/05/13 07:56:38;;;;;;;3.00;2.80;;;33.10;61.60;;;33.35;28.49;100860.00;5026089;28;20637;-67
2023/05/13 07:59:04;;;;;;;2.67;2.57;;;33.60;58.40;;;33.68;28.93;100870.66;5020252;28;20682;-66
2023/05/13 08:01:31;;;;;;;2.10;2.00;;;33.80;57.60;;;34.20;27.83;100865.44;5026089;28;20629;-67
2023/05/13 08:03:58;;;;;;;2.30;2.20;;;34.40;56.00;;;34.50;27.45;100870.28;5013143;28;20632;-66
2023/05/13 08:06:26;;;;;;;2.60;2.50;;;34.80;55.10;;;35.03;27.02;100862.69;5022302;28;20632;-67
2023/05/13 08:08:53;;;;;;;3.80;3.57;;;35.10;54.80;;;36.03;26.15;100869.44;5020132;28;20742;-68
2023/05/13 08:11:20;;;;;;;1.70;1.60;;;36.10;53.60;;;35.50;24.73;100853.63;5023464;28;20658;-68
2023/05/13 08:13:47;;;;;;;2.03;2.03;;;36.20;50.60;;;34.05;26.53;100855.31;5018791;28;20716;-66
2023/05/13 08:16:14;;;;;;;2.70;2.60;;;34.60;51.80;;;34.63;25.94;100851.63;5012284;28;20619;-66
2023/05/13 08:18:41;;;;;;;2.87;1.93;;;34.90;51.90;;;34.07;26.62;100849.63;5018993;28;20648;-66
2023/05/13 08:21:08;;;;;;;1.70;1.70;;;34.70;51.00;;;33.16;27.86;100851.38;5011718;28;20664;-67
2023/05/13 08:23:37;;;;;;;2.87;2.70;;;34.00;51.70;;;33.87;27.94;100839.41;5019865;28;21259;-66
2023/05/13 08:26:12;;;;;;;2.97;2.83;;;34.20;52.50;;;34.55;27.22;100849.44;5029245;28;20612;-68
2023/05/13 08:28:39;;;;;;;2.60;2.50;;;34.90;52.30;;;35.40;25.74;100840.00;5019324;28;20664;-66
2023/05/13 08:31:13;;;;;;;2.77;2.67;;;35.60;51.50;;;36.17;25.82;100843.34;5033130;28;20627;-67
2023/05/13 08:33:41;;;;;;;2.50;2.40;;;36.20;51.00;;;36.45;25.06;100837.34;5020875;28;21086;-66
2023/05/13 08:36:08;;;;;;;2.20;2.10;;;36.70;50.10;;;36.58;24.46;100844.13;5022536;28;20701;-67
2023/05/13 08:38:35;;;;;;;2.60;2.50;;;36.80;49.40;;;36.69;24.83;100836.72;5018929;28;20660;-67
2023/05/13 08:41:06;;;;;;;2.60;2.50;;;36.90;49.20;;;36.72;24.35;100841.59;5031998;28;20689;-67
2023/05/13 08:43:35;;;;;;;2.17;2.13;;;37.10;48.40;;;36.25;25.06;100847.41;5024055;28;20624;-67
2023/05/13 08:46:03;;;;;;;1.80;1.70;;;36.70;49.10;;;36.44;24.41;100845.75;5030398;28;20621;-67
2023/05/13 08:48:31;;;;;;;2.10;2.10;;;36.90;48.40;;;36.62;24.26;100839.75;5020407;28;20647;-66
2023/05/13 08:51:00;;;;;;;2.50;2.40;;;37.00;48.60;;;36.53;24.83;100844.94;5027436;28;20619;-66
2023/05/13 08:53:28;;;;;;;1.70;1.70;;;36.80;48.80;;;34.74;25.52;100837.06;5023324;28;20624;-65
2023/05/13 08:55:56;;;;;;;2.47;2.40;;;35.90;48.10;;;34.41;25.72;100832.00;5021410;28;20627;-66
2023/05/13 08:58:27;;;;;;;1.70;1.70;;;35.00;48.40;;;35.02;25.43;100842.09;5024935;28;20641;-66
2023/05/13 09:00:54;;;;;;;1.97;1.97;;;35.40;48.80;;;35.49;24.87;100839.25;5014048;28;21007;-66
2023/05/13 09:03:21;;;;;;;2.30;2.20;;;35.70;48.30;;;36.07;24.15;100837.94;5025572;28;20601;-66
2023/05/13 09:05:51;;;;;;;5.30;1.50;;;36.10;47.50;;;35.35;23.72;100837.31;5018080;28;20660;-67
2023/05/13 09:08:18;;;;;;;1.97;1.97;;;35.90;46.80;;;36.25;23.24;100845.50;5031732;28;20705;-66
2023/05/13 09:10:48;;;;;;;1.90;1.83;;;36.40;46.40;;;37.45;22.46;100840.75;5031594;28;20631;-67
2023/05/13 09:13:19;;;;;;;1.70;1.70;;;37.40;46.30;;;37.97;21.87;100840.09;5026858;28;20663;-67
2023/05/13 09:15:47;;;;;;;2.07;1.90;;;38.30;45.60;;;36.83;22.46;100840.47;5023212;28;20796;-66
2023/05/13 09:18:17;;;;;;;2.20;2.20;;;37.80;45.10;;;36.32;23.02;100840.63;5040391;28;20672;-66
2023/05/13 09:20:48;;;;;;;2.20;2.20;;;37.10;45.60;;;36.94;23.46;100839.38;5009135;28;20666;-66
2023/05/13 09:23:16;;;;;;;1.77;1.77;;;37.30;46.20;;;37.66;21.46;100834.06;5029806;28;20639;-66
2023/05/13 09:25:46;;;;;;;1.93;1.93;;;37.90;44.90;;;38.70;21.49;100836.09;5032756;28;20616;-67
2023/05/13 09:28:17;;;;;;;1.83;1.83;;;38.70;45.10;;;39.76;20.59;100831.06;5014897;28;20661;-66
2023/05/13 09:30:54;;;;;;;2.10;2.10;;;39.80;44.50;;;39.69;20.31;100830.63;5029073;28;20631;-65
2023/05/13 09:33:28;;;;;;;2.27;2.17;;;40.10;43.80;;;38.73;21.05;100829.25;5046694;28;20639;-65
2023/05/13 09:35:55;;;;;;;2.23;2.23;;;39.40;44.00;;;38.89;20.76;100825.19;5024142;28;21266;-66
2023/05/13 09:38:30;;;;;;;1.87;1.83;;;39.40;43.70;;;38.17;21.55;100820.00;5012435;28;20641;-65
2023/05/13 09:41:01;;;;;;;2.40;2.30;;;39.00;43.40;;;37.84;22.37;100810.78;5010831;28;20644;-67
2023/05/13 09:43:36;;;;;;;2.40;2.30;;;38.50;44.10;;;37.86;22.21;100816.75;5017956;28;20720;-67
2023/05/13 09:46:04;;;;;;;2.00;2.00;;;38.30;44.50;;;38.31;22.11;100812.81;5009473;28;20632;-67
2023/05/13 09:48:33;;;;;;;2.30;2.20;;;38.50;44.30;;;38.83;21.24;100811.91;5024473;28;20648;-65
2023/05/13 09:51:00;;;;;;;1.47;1.47;;;39.00;44.20;;;38.61;20.67;100809.72;5031526;28;20963;-67
2023/05/13 09:53:27;;;;;;;1.67;1.67;;;38.90;43.00;;;38.68;20.39;100804.75;5026926;28;20671;-67
2023/05/13 09:55:58;;;;;;;2.10;2.10;;;38.90;43.00;;;38.63;21.17;100802.06;5031588;28;20621;-64
2023/05/13 09:58:30;;;;;;;2.30;2.20;;;38.80;43.70;;;38.27;21.81;100798.94;5010394;28;20652;-68
2023/05/13 10:00:57;;;;;;;1.87;1.87;;;38.50;43.70;;;38.05;21.00;100795.88;5024085;28;20665;-67
2023/05/13 10:03:27;;;;;;;1.97;1.97;;;38.10;43.40;;;37.77;21.42;100794.75;5015308;28;20621;-66
2023/05/13 10:05:56;;;;;;;2.30;2.30;;;37.90;44.10;;;37.08;21.65;100796.84;5030695;28;20651;-66
2023/05/13 10:08:23;;;;;;;1.60;1.60;;;37.20;43.70;;;35.84;22.44;100803.16;5021492;28;20652;-67
2023/05/13 10:10:54;;;;;;;2.17;2.17;;;36.00;43.90;;;34.39;23.98;100790.81;5027606;28;20620;-66
2023/05/13 10:13:23;;;;;;;1.73;1.73;;;34.50;45.40;;;33.41;25.55;100796.78;5025730;28;21159;-68
2023/05/13 10:15:52;;;;;;;2.00;1.90;;;33.50;46.10;;;32.82;26.25;100785.00;5041780;28;20697;-67
2023/05/13 10:18:22;;;;;;;1.80;1.70;;;32.60;46.90;;;31.31;27.07;100790.72;5045629;28;20652;-66